Главная страница
METAR-TAF:

METAR-TAF

Аэропорты :

Мехрабад

Тегеран, Иран

широта: 35-41N, долгота: 051-21E, высота над уровнем моря: 1204 м

Текущие метеонаблюдения

Эта сводка был подготовлена 20 минут назад, в 11:30 UTC
Ветер 14 Узел от восточно-юго-восточный
Температура 40°C
Влажность 7%
Давление 1005 hPa
Видимость 10 км и более
небольшая облачность на высоте 9000 фута

METAR: OIII 171130Z 12014KT 9999 FEW090 40/M02 Q1004 A2967

Время: 16:20 (11:50 UTC)

Прогноз

Эта сводка был подготовлена 50 минут назад, в 11:00 UTC
Прогноз действительный с 17-го 12 UTC до 18-го 18 UTC
Ветер 8 Узел от юго-восточный
Видимость: 8000 м
временами
С 17-го 12 UTC до 17-го 18 UTC
Ветер 17 Узел от юго-восточный
временами
С 18-го 09 UTC до 18-го 12 UTC
Ветер 16 Узел от восточно-юго-восточный

TAF: OIII 171100Z 1712/1818 14004MPS 8000 NSC TEMPO 1712/1718 13009MPS TEMPO 1809/1812 12008MPS

Метеонаблюдения и прогнозы для более 4000 аэропортов (сводки METAR и TAF).

Имеющиеся станции представлены на карте желтыми и красными точками.

Чтобы увидеть название станции, наведите на нее мышь.

Затем щелкните, чтобы увидеть метеонаблюдения и метеопрогнозы.

Управление картой: чтобы увеличить масштаб, щелкните зеленые кнопки с черным крестиком; чтобы уменьшить масштаб, щелкните зеленую кнопку с тире; для просмотра соседних карт щелкайте зеленые стрелки.


METAR-TAF: